createdAt,value
2023-01-02T00:01:07.418Z,83.85
2023-01-02T00:03:34.086Z,84.16
2023-01-02T00:06:08.338Z,84.46
2023-01-02T00:08:34.968Z,84.39
2023-01-02T00:11:01.517Z,84.76
2023-01-02T00:13:27.997Z,85.11
2023-01-02T00:15:54.553Z,85.40
2023-01-02T00:18:21.077Z,84.99
2023-01-02T00:20:47.590Z,84.75
2023-01-02T00:23:14.040Z,85.21
2023-01-02T00:25:44.438Z,85.48
2023-01-02T00:28:10.934Z,85.33
2023-01-02T00:30:38.989Z,85.01
2023-01-02T00:33:06.869Z,84.47
2023-01-02T00:35:33.911Z,84.47
2023-01-02T00:38:00.411Z,84.09
2023-01-02T00:40:28.884Z,84.11
2023-01-02T00:42:55.343Z,83.52
2023-01-02T00:45:21.826Z,83.85
2023-01-02T00:47:48.319Z,83.25
2023-01-02T00:50:15.205Z,82.97
2023-01-02T00:52:41.694Z,83.50
2023-01-02T00:55:12.116Z,83.22
2023-01-02T00:57:39.084Z,83.13
2023-01-02T01:00:06.814Z,83.08
2023-01-02T01:02:36.884Z,83.31
2023-01-02T01:05:03.613Z,83.66
2023-01-02T01:07:30.194Z,83.93
2023-01-02T01:09:56.687Z,83.28
2023-01-02T01:12:23.211Z,83.66
2023-01-02T01:14:49.698Z,83.21
2023-01-02T01:17:16.158Z,83.26
2023-01-02T01:19:42.673Z,83.61
2023-01-02T01:22:14.443Z,83.08
2023-01-02T01:24:44.103Z,82.64
2023-01-02T01:27:10.555Z,81.86
2023-01-02T01:29:37.057Z,82.53
2023-01-02T01:32:03.675Z,82.24
2023-01-02T01:34:30.176Z,82.29
2023-01-02T01:37:01.055Z,82.22
2023-01-02T01:39:31.331Z,81.95
2023-01-02T01:42:01.815Z,81.67
2023-01-02T01:44:46.985Z,81.66
2023-01-02T01:47:39.065Z,81.27
2023-01-02T01:50:26.939Z,80.82
2023-01-02T01:53:02.942Z,81.58
2023-01-02T01:55:43.853Z,81.62
2023-01-02T01:58:23.006Z,81.61
2023-01-02T02:00:51.688Z,81.46
2023-01-02T02:03:21.997Z,80.83
2023-01-02T02:05:49.140Z,81.14
2023-01-02T02:08:37.511Z,81.17
2023-01-02T02:11:04.592Z,80.41
2023-01-02T02:13:33.022Z,80.58
2023-01-02T02:16:28.538Z,80.66
2023-01-02T02:19:37.021Z,80.74
2023-01-02T02:22:40.883Z,80.42
2023-01-02T02:25:41.525Z,80.50
2023-01-02T02:28:26.633Z,80.75
2023-01-02T02:30:59.048Z,80.97
2023-01-02T02:33:52.127Z,80.34
2023-01-02T02:36:26.817Z,80.40
2023-01-02T02:38:58.648Z,80.63
2023-01-02T02:41:36.036Z,80.26
2023-01-02T02:44:21.114Z,80.56
2023-01-02T02:47:01.717Z,80.33
2023-01-02T02:49:41.992Z,80.19
2023-01-02T02:52:24.723Z,80.32
2023-01-02T02:55:03.562Z,79.69
2023-01-02T02:57:31.746Z,79.87
2023-01-02T02:59:58.411Z,80.23
2023-01-02T03:02:25.114Z,80.43
2023-01-02T03:05:02.724Z,80.12
2023-01-02T03:07:53.623Z,80.16
2023-01-02T03:10:26.713Z,80.02
2023-01-02T03:12:53.131Z,80.73
2023-01-02T03:15:30.961Z,80.27
2023-01-02T03:18:25.961Z,80.37
2023-01-02T03:21:10.325Z,80.30
2023-01-02T03:23:43.394Z,80.08
2023-01-02T03:26:13.179Z,79.93
2023-01-02T03:28:44.645Z,79.74
2023-01-02T03:31:19.849Z,80.23
2023-01-02T03:33:54.665Z,80.19
2023-01-02T03:36:27.937Z,80.17
2023-01-02T03:39:18.980Z,80.46
2023-01-02T03:42:10.124Z,80.60
2023-01-02T03:44:42.925Z,80.45
2023-01-02T03:47:27.487Z,80.47
2023-01-02T03:49:57.092Z,80.30
2023-01-02T03:52:26.155Z,80.07
2023-01-02T03:54:54.650Z,79.96
2023-01-02T03:57:57.521Z,79.98
2023-01-02T04:00:32.697Z,80.22
2023-01-02T04:03:17.635Z,80.08
2023-01-02T04:06:00.143Z,79.91
2023-01-02T04:08:34.601Z,80.14
2023-01-02T04:11:03.641Z,80.50
2023-01-02T04:13:37.476Z,80.31
2023-01-02T04:16:07.549Z,80.26
2023-01-02T04:18:46.204Z,79.82
2023-01-02T04:21:21.773Z,80.14
2023-01-02T04:23:53.382Z,80.08
2023-01-02T04:26:45.775Z,80.21
2023-01-02T04:29:12.660Z,79.96
2023-01-02T04:31:48.617Z,79.57
2023-01-02T04:34:17.204Z,79.15
2023-01-02T04:36:44.293Z,79.63
2023-01-02T04:39:10.851Z,79.50
2023-01-02T04:41:39.024Z,79.58
2023-01-02T04:44:05.931Z,79.18
2023-01-02T04:46:32.622Z,78.94
2023-01-02T04:48:59.167Z,78.78
2023-01-02T04:51:26.011Z,78.46
2023-01-02T04:53:53.413Z,78.83
2023-01-02T04:56:21.000Z,78.66
2023-01-02T04:58:48.448Z,78.61
2023-01-02T05:01:17.504Z,78.10
2023-01-02T05:03:46.670Z,78.02
2023-01-02T05:06:13.968Z,78.38
2023-01-02T05:08:41.194Z,78.07
2023-01-02T05:11:09.832Z,78.57
2023-01-02T05:13:36.369Z,78.70
2023-01-02T05:16:03.884Z,78.43
2023-01-02T05:18:31.629Z,78.69
2023-01-02T05:21:06.838Z,78.42
2023-01-02T05:23:51.182Z,78.30
2023-01-02T05:26:18.481Z,78.20
2023-01-02T05:28:48.180Z,77.90
2023-01-02T05:31:15.031Z,77.96
2023-01-02T05:33:47.169Z,77.87
2023-01-02T05:36:13.608Z,78.42
2023-01-02T05:38:40.103Z,78.65
2023-01-02T05:41:07.868Z,78.54
2023-01-02T05:43:36.670Z,78.46
2023-01-02T05:46:13.442Z,78.47
2023-01-02T05:48:40.874Z,78.61
2023-01-02T05:51:09.998Z,78.50
2023-01-02T05:53:37.407Z,78.60
2023-01-02T05:56:15.160Z,78.55
2023-01-02T05:58:44.580Z,78.67
2023-01-02T06:01:14.498Z,78.67
2023-01-02T06:03:45.558Z,78.42
2023-01-02T06:06:12.663Z,78.14
2023-01-02T06:08:39.463Z,78.25
2023-01-02T06:11:06.866Z,78.00
2023-01-02T06:13:35.619Z,78.09
2023-01-02T06:16:02.975Z,78.25
2023-01-02T06:18:32.153Z,77.90
2023-01-02T06:20:59.982Z,78.01
2023-01-02T06:23:26.890Z,78.06
2023-01-02T06:25:53.442Z,78.27
2023-01-02T06:28:20.465Z,78.18
2023-01-02T06:30:47.024Z,78.04
2023-01-02T06:33:13.579Z,77.47
2023-01-02T06:35:40.025Z,77.56
2023-01-02T06:38:06.965Z,77.72
2023-01-02T06:40:33.445Z,77.81
2023-01-02T06:43:00.426Z,77.56
2023-01-02T06:45:27.127Z,77.34
2023-01-02T06:47:58.365Z,76.92
2023-01-02T06:50:28.603Z,77.16
2023-01-02T06:52:59.432Z,77.19
2023-01-02T06:55:41.897Z,77.31
2023-01-02T06:58:19.364Z,77.41
2023-01-02T07:00:54.050Z,77.18
2023-01-02T07:03:20.578Z,76.98
2023-01-02T07:05:47.073Z,76.20
2023-01-02T07:08:13.867Z,76.68
2023-01-02T07:10:40.424Z,76.45
2023-01-02T07:13:06.903Z,76.89
2023-01-02T07:15:33.604Z,76.60
2023-01-02T07:18:00.102Z,76.46
2023-01-02T07:20:26.609Z,76.48
2023-01-02T07:22:53.931Z,75.51
2023-01-02T07:25:21.944Z,76.21
2023-01-02T07:27:48.447Z,75.65
2023-01-02T07:30:15.082Z,76.23
2023-01-02T07:32:41.629Z,76.31
2023-01-02T07:35:08.638Z,75.71
2023-01-02T07:37:35.107Z,75.87
2023-01-02T07:40:01.563Z,76.20
2023-01-02T07:42:28.215Z,75.86
2023-01-02T07:44:54.733Z,76.29
2023-01-02T07:47:21.230Z,75.51
2023-01-02T07:49:47.871Z,74.71
2023-01-02T07:52:14.330Z,75.07
2023-01-02T07:54:40.889Z,75.12
2023-01-02T07:57:07.346Z,75.51
2023-01-02T07:59:33.836Z,75.12
2023-01-02T08:02:00.479Z,74.80
2023-01-02T08:04:27.689Z,74.96
2023-01-02T08:06:54.241Z,74.59
2023-01-02T08:09:21.025Z,74.57
2023-01-02T08:11:47.512Z,74.12
2023-01-02T08:14:17.089Z,74.27
2023-01-02T08:16:48.219Z,74.72
2023-01-02T08:19:14.683Z,74.21
2023-01-02T08:21:43.712Z,74.18
2023-01-02T08:24:10.209Z,74.03
2023-01-02T08:26:36.689Z,74.38
2023-01-02T08:29:03.322Z,74.42
2023-01-02T08:31:33.287Z,73.81
2023-01-02T08:34:00.926Z,74.11
2023-01-02T08:36:27.594Z,73.72
2023-01-02T08:38:54.076Z,73.90
2023-01-02T08:41:38.217Z,73.97
2023-01-02T08:44:05.848Z,73.80
2023-01-02T08:46:38.593Z,73.55
2023-01-02T08:49:08.644Z,73.57
2023-01-02T08:51:35.118Z,73.05
2023-01-02T08:54:01.703Z,73.29
2023-01-02T08:56:32.832Z,73.05
2023-01-02T08:59:03.746Z,73.46
2023-01-02T09:01:31.619Z,73.80
2023-01-02T09:03:59.263Z,74.00
2023-01-02T09:06:27.558Z,75.73
2023-01-02T09:08:56.597Z,75.07
2023-01-02T09:11:28.647Z,75.88
2023-01-02T09:13:55.763Z,76.18
2023-01-02T09:16:22.897Z,75.66
2023-01-02T09:18:49.894Z,75.47
2023-01-02T09:21:17.071Z,75.50
2023-01-02T09:23:43.908Z,74.79
2023-01-02T09:26:12.257Z,74.34
2023-01-02T09:28:39.026Z,73.67
2023-01-02T09:31:12.018Z,73.90
2023-01-02T09:33:40.471Z,74.06
2023-01-02T09:36:08.818Z,74.00
2023-01-02T09:38:35.344Z,73.22
2023-01-02T09:41:11.029Z,73.88
2023-01-02T09:43:41.850Z,73.88
2023-01-02T09:46:36.122Z,74.17
2023-01-02T09:49:03.977Z,73.57
2023-01-02T09:51:32.436Z,73.73
2023-01-02T09:53:59.184Z,73.78
2023-01-02T09:56:37.217Z,72.52
2023-01-02T09:59:09.647Z,72.24
2023-01-02T10:01:54.759Z,72.96
2023-01-02T10:04:47.532Z,74.40
2023-01-02T10:07:25.716Z,75.13
2023-01-02T10:10:07.442Z,75.25
2023-01-02T10:13:06.179Z,75.63
2023-01-02T10:15:33.373Z,75.12
2023-01-02T10:18:13.982Z,75.18
2023-01-02T10:20:44.741Z,75.18
2023-01-02T10:23:15.018Z,74.93
2023-01-02T10:26:12.625Z,74.85
2023-01-02T10:29:03.626Z,75.08
2023-01-02T10:31:38.714Z,74.32
2023-01-02T10:34:14.563Z,74.59
2023-01-02T10:36:42.992Z,74.40
2023-01-02T10:39:32.439Z,74.22
2023-01-02T10:41:59.910Z,73.41
2023-01-02T10:44:33.640Z,73.12
2023-01-02T10:47:30.401Z,73.52
2023-01-02T10:49:57.194Z,73.61
2023-01-02T10:52:33.236Z,73.23
2023-01-02T10:55:00.980Z,72.02
2023-01-02T10:57:42.756Z,71.37
2023-01-02T11:00:22.527Z,70.91
2023-01-02T11:02:58.648Z,71.42
2023-01-02T11:05:28.355Z,70.84
2023-01-02T11:07:56.024Z,70.95
2023-01-02T11:10:26.628Z,71.02
2023-01-02T11:12:53.196Z,70.32
2023-01-02T11:15:30.878Z,69.94
2023-01-02T11:17:58.439Z,70.20
2023-01-02T11:20:37.631Z,69.58
2023-01-02T11:23:04.704Z,70.03
2023-01-02T11:25:40.813Z,69.80
2023-01-02T11:28:16.953Z,69.81
2023-01-02T11:30:45.578Z,70.68
2023-01-02T11:33:24.228Z,70.63
2023-01-02T11:35:52.643Z,71.26
2023-01-02T11:38:29.840Z,70.41
2023-01-02T11:41:02.408Z,71.27
2023-01-02T11:43:49.019Z,71.32
2023-01-02T11:46:36.803Z,71.26
2023-01-02T11:49:09.211Z,71.17
2023-01-02T11:51:38.612Z,71.75
2023-01-02T11:54:13.611Z,72.11
2023-01-02T11:56:43.568Z,72.26
2023-01-02T11:59:32.351Z,71.93
2023-01-02T12:02:02.243Z,72.25
2023-01-02T12:04:28.872Z,72.00
2023-01-02T12:06:58.094Z,71.84
2023-01-02T12:10:06.471Z,72.42
2023-01-02T12:12:54.703Z,72.10
2023-01-02T12:15:39.518Z,72.93
2023-01-02T12:18:50.794Z,74.98
2023-01-02T12:21:24.346Z,80.44
2023-01-02T12:24:06.470Z,90.77
2023-01-02T12:26:57.296Z,94.35
2023-01-02T12:30:04.318Z,98.38
2023-01-02T12:32:38.272Z,99.05
2023-01-02T12:35:21.533Z,99.45
2023-01-02T12:37:56.105Z,100.00
2023-01-02T12:40:41.057Z,100.00
2023-01-02T12:43:24.499Z,100.00
2023-01-02T12:46:12.894Z,100.00
2023-01-02T12:48:46.203Z,100.00
2023-01-02T12:51:18.067Z,100.00
2023-01-02T12:54:21.059Z,100.00
2023-01-02T12:57:38.205Z,100.00
2023-01-02T13:00:41.780Z,100.00
2023-01-02T13:03:23.185Z,100.00
2023-01-02T13:06:44.866Z,100.00
2023-01-02T13:09:04.287Z,100.00
2023-01-02T13:11:49.422Z,100.00
2023-01-02T13:14:20.032Z,100.00
2023-01-02T13:16:55.571Z,100.00
2023-01-02T13:19:40.019Z,100.00
2023-01-02T13:22:12.607Z,100.00
2023-01-02T13:24:39.362Z,100.00
2023-01-02T13:27:06.291Z,100.00
2023-01-02T13:29:44.195Z,100.00
2023-01-02T13:32:12.623Z,100.00
2023-01-02T13:34:52.372Z,100.00
2023-01-02T13:37:22.003Z,100.00
2023-01-02T13:39:57.897Z,100.00
2023-01-02T13:42:46.531Z,100.00
2023-01-02T13:45:41.806Z,100.00
2023-01-02T13:48:34.059Z,100.00
2023-01-02T13:51:04.789Z,100.00
2023-01-02T13:53:41.664Z,100.00
2023-01-02T13:56:21.527Z,100.00
2023-01-02T13:58:57.565Z,100.00
2023-01-02T14:01:24.259Z,100.00
2023-01-02T14:04:19.106Z,100.00
2023-01-02T14:06:53.927Z,100.00
2023-01-02T14:09:22.751Z,100.00
2023-01-02T14:11:55.495Z,100.00
2023-01-02T14:14:46.802Z,100.00
2023-01-02T14:17:37.257Z,100.00
2023-01-02T14:20:19.094Z,100.00
2023-01-02T14:22:59.968Z,100.00
2023-01-02T14:25:27.036Z,100.00
2023-01-02T14:27:59.811Z,100.00
2023-01-02T14:30:38.618Z,100.00
2023-01-02T14:33:07.695Z,100.00
2023-01-02T14:35:38.788Z,100.00
2023-01-02T14:38:36.051Z,100.00
2023-01-02T14:41:25.627Z,100.00
2023-01-02T14:43:52.243Z,100.00
2023-01-02T14:46:25.715Z,100.00
2023-01-02T14:49:24.936Z,100.00
2023-01-02T14:51:59.112Z,100.00
2023-01-02T14:54:48.719Z,100.00
2023-01-02T14:57:24.132Z,100.00
2023-01-02T14:59:53.536Z,100.00
2023-01-02T15:02:27.129Z,100.00
2023-01-02T15:05:06.399Z,100.00
2023-01-02T15:07:40.153Z,100.00
2023-01-02T15:10:21.541Z,100.00
2023-01-02T15:13:03.913Z,100.00
2023-01-02T15:15:38.625Z,100.00
2023-01-02T15:18:30.795Z,100.00
2023-01-02T15:21:04.836Z,100.00
2023-01-02T15:23:31.579Z,100.00
2023-01-02T15:26:33.136Z,100.00
2023-01-02T15:28:54.948Z,100.00
2023-01-02T15:31:21.753Z,100.00
2023-01-02T15:33:53.882Z,100.00
2023-01-02T15:36:41.460Z,100.00
2023-01-02T15:39:20.840Z,100.00
2023-01-02T15:41:50.071Z,100.00
2023-01-02T15:44:41.545Z,100.00
2023-01-02T15:47:09.429Z,100.00
2023-01-02T15:49:40.681Z,100.00
2023-01-02T15:52:26.432Z,100.00
2023-01-02T15:54:53.684Z,100.00
2023-01-02T15:57:27.709Z,100.00
2023-01-02T15:59:54.719Z,100.00
2023-01-02T16:02:44.278Z,100.00
2023-01-02T16:05:13.231Z,100.00
2023-01-02T16:07:40.448Z,100.00
2023-01-02T16:10:09.298Z,100.00
2023-01-02T16:12:57.785Z,100.00
2023-01-02T16:15:32.118Z,100.00
2023-01-02T16:17:58.730Z,100.00
2023-01-02T16:20:27.188Z,100.00
2023-01-02T16:23:04.730Z,100.00
2023-01-02T16:25:34.163Z,100.00
2023-01-02T16:28:35.271Z,100.00
2023-01-02T16:31:19.048Z,100.00
2023-01-02T16:33:49.079Z,100.00
2023-01-02T16:36:20.543Z,100.00
2023-01-02T16:38:49.777Z,100.00
2023-01-02T16:41:36.525Z,100.00
2023-01-02T16:44:12.451Z,100.00
2023-01-02T16:46:44.039Z,100.00
2023-01-02T16:49:22.401Z,100.00
2023-01-02T16:51:59.019Z,100.00
2023-01-02T16:54:25.503Z,100.00
2023-01-02T16:56:52.139Z,100.00
2023-01-02T16:59:21.409Z,100.00
2023-01-02T17:01:47.966Z,100.00
2023-01-02T17:04:15.569Z,100.00
2023-01-02T17:06:42.046Z,100.00
2023-01-02T17:09:08.533Z,100.00
2023-01-02T17:11:35.077Z,100.00
2023-01-02T17:14:01.837Z,100.00
2023-01-02T17:16:28.518Z,100.00
2023-01-02T17:18:55.103Z,100.00
2023-01-02T17:21:22.533Z,100.00
2023-01-02T17:23:54.858Z,100.00
2023-01-02T17:26:21.479Z,100.00
2023-01-02T17:28:47.966Z,100.00
2023-01-02T17:31:15.203Z,100.00
2023-01-02T17:33:41.843Z,100.00
2023-01-02T17:36:10.902Z,100.00
2023-01-02T17:38:37.407Z,100.00
2023-01-02T17:41:03.976Z,100.00
2023-01-02T17:43:31.059Z,100.00
2023-01-02T17:45:57.573Z,100.00
2023-01-02T17:48:25.218Z,100.00
2023-01-02T17:50:56.203Z,100.00
2023-01-02T17:53:22.743Z,100.00
2023-01-02T17:56:21.158Z,100.00
2023-01-02T17:58:45.345Z,100.00
2023-01-02T18:01:17.630Z,100.00
2023-01-02T18:03:44.742Z,100.00
2023-01-02T18:06:11.545Z,100.00
2023-01-02T18:08:38.746Z,100.00
2023-01-02T18:11:09.718Z,100.00
2023-01-02T18:13:42.210Z,100.00
2023-01-02T18:16:16.627Z,100.00
2023-01-02T18:18:44.718Z,100.00
2023-01-02T18:21:13.499Z,100.00
2023-01-02T18:23:41.393Z,100.00
2023-01-02T18:26:13.424Z,100.00
2023-01-02T18:28:41.596Z,100.00
2023-01-02T18:31:19.008Z,100.00
2023-01-02T18:33:46.388Z,100.00
2023-01-02T18:36:24.757Z,100.00
2023-01-02T18:39:12.142Z,100.00
2023-01-02T18:41:39.866Z,100.00
2023-01-02T18:44:26.657Z,100.00
2023-01-02T18:47:05.217Z,100.00
2023-01-02T18:49:42.342Z,100.00
2023-01-02T18:52:11.769Z,100.00
2023-01-02T18:54:44.665Z,100.00
2023-01-02T18:57:15.469Z,100.00
2023-01-02T18:59:51.841Z,100.00
2023-01-02T19:02:37.033Z,100.00
2023-01-02T19:05:31.192Z,100.00
2023-01-02T19:08:13.153Z,100.00
2023-01-02T19:10:57.607Z,100.00
2023-01-02T19:13:35.108Z,100.00
2023-01-02T19:16:10.050Z,100.00
2023-01-02T19:18:44.546Z,100.00
2023-01-02T19:21:31.097Z,100.00
2023-01-02T19:24:04.545Z,100.00
2023-01-02T19:26:38.460Z,100.00
2023-01-02T19:29:11.195Z,100.00
2023-01-02T19:31:48.503Z,100.00
2023-01-02T19:34:38.862Z,100.00
2023-01-02T19:37:11.450Z,100.00
2023-01-02T19:39:51.505Z,100.00
2023-01-02T19:42:21.897Z,100.00
2023-01-02T19:44:51.001Z,100.00
2023-01-02T19:47:18.632Z,100.00
2023-01-02T19:49:45.630Z,100.00
2023-01-02T19:52:12.536Z,100.00
2023-01-02T19:54:39.934Z,100.00
2023-01-02T19:57:07.973Z,100.00
2023-01-02T19:59:41.707Z,100.00
2023-01-02T20:02:10.257Z,100.00
2023-01-02T20:04:36.861Z,100.00
2023-01-02T20:07:03.536Z,100.00
2023-01-02T20:09:30.067Z,100.00
2023-01-02T20:12:15.148Z,100.00
2023-01-02T20:14:42.441Z,100.00
2023-01-02T20:17:09.788Z,100.00
2023-01-02T20:19:37.051Z,100.00
2023-01-02T20:22:04.231Z,100.00
2023-01-02T20:24:30.792Z,100.00
2023-01-02T20:26:59.571Z,100.00
2023-01-02T20:29:26.655Z,100.00
2023-01-02T20:31:53.434Z,100.00
2023-01-02T20:34:20.420Z,100.00
2023-01-02T20:36:46.996Z,100.00
2023-01-02T20:39:13.790Z,100.00
2023-01-02T20:41:40.483Z,100.00
2023-01-02T20:44:08.368Z,100.00
2023-01-02T20:46:35.401Z,100.00
2023-01-02T20:49:02.105Z,100.00
2023-01-02T20:51:30.235Z,100.00
2023-01-02T20:53:59.253Z,100.00
2023-01-02T20:56:26.299Z,100.00
2023-01-02T20:58:54.000Z,100.00
2023-01-02T21:01:21.219Z,100.00
2023-01-02T21:03:48.276Z,100.00
2023-01-02T21:06:14.851Z,100.00
2023-01-02T21:08:42.330Z,100.00
2023-01-02T21:11:08.813Z,100.00
2023-01-02T21:13:35.449Z,100.00
2023-01-02T21:16:02.054Z,100.00
2023-01-02T21:18:34.056Z,100.00
2023-01-02T21:21:05.616Z,100.00
2023-01-02T21:23:35.358Z,100.00
2023-01-02T21:26:02.341Z,100.00
2023-01-02T21:28:28.839Z,100.00
2023-01-02T21:30:55.554Z,100.00
2023-01-02T21:33:23.574Z,100.00
2023-01-02T21:35:51.540Z,100.00
2023-01-02T21:38:19.817Z,100.00
2023-01-02T21:40:46.341Z,100.00
2023-01-02T21:43:13.187Z,100.00
2023-01-02T21:45:43.020Z,100.00
2023-01-02T21:48:09.615Z,100.00
2023-01-02T21:50:36.188Z,100.00
2023-01-02T21:53:02.709Z,100.00
2023-01-02T21:55:29.214Z,100.00
2023-01-02T21:58:12.997Z,100.00
2023-01-02T22:00:41.722Z,100.00
2023-01-02T22:03:08.527Z,100.00
2023-01-02T22:05:35.165Z,100.00
2023-01-02T22:08:01.763Z,100.00
2023-01-02T22:10:28.396Z,100.00
2023-01-02T22:12:55.188Z,100.00
2023-01-02T22:15:24.977Z,100.00
2023-01-02T22:17:57.828Z,100.00
2023-01-02T22:20:24.281Z,100.00
2023-01-02T22:22:50.905Z,100.00
2023-01-02T22:25:17.482Z,100.00
2023-01-02T22:27:44.256Z,100.00
2023-01-02T22:30:23.027Z,100.00
2023-01-02T22:32:52.757Z,100.00
2023-01-02T22:35:19.326Z,100.00
2023-01-02T22:37:45.848Z,100.00
2023-01-02T22:40:12.728Z,100.00
2023-01-02T22:43:03.352Z,100.00
2023-01-02T22:45:38.498Z,100.00
2023-01-02T22:48:19.047Z,100.00
2023-01-02T22:50:46.688Z,100.00
2023-01-02T22:53:24.165Z,100.00
2023-01-02T22:55:50.907Z,100.00
2023-01-02T22:58:18.676Z,100.00
2023-01-02T23:00:47.610Z,100.00
2023-01-02T23:03:15.664Z,100.00
2023-01-02T23:05:42.722Z,100.00
2023-01-02T23:08:09.318Z,100.00
2023-01-02T23:10:35.957Z,100.00
2023-01-02T23:13:02.516Z,100.00
2023-01-02T23:15:29.127Z,100.00
2023-01-02T23:18:16.765Z,100.00
2023-01-02T23:20:46.824Z,100.00
2023-01-02T23:23:13.280Z,100.00
2023-01-02T23:25:42.529Z,100.00
2023-01-02T23:28:09.077Z,100.00
2023-01-02T23:30:35.592Z,100.00
2023-01-02T23:33:05.333Z,100.00
2023-01-02T23:35:31.783Z,100.00
2023-01-02T23:37:58.352Z,100.00
2023-01-02T23:40:27.174Z,100.00
2023-01-02T23:42:57.152Z,100.00
2023-01-02T23:45:23.618Z,100.00
2023-01-02T23:47:56.143Z,100.00
2023-01-02T23:50:22.660Z,100.00
2023-01-02T23:52:49.145Z,100.00
2023-01-02T23:55:15.688Z,100.00
2023-01-02T23:57:44.232Z,100.00
